Terminal Aerodrome Forecast
Issued by NWS Cleveland, OH

Home | Current Version | Previous Version | Graphics & Text | Print | Product List | Glossary On
Versions: 1 2 3 4 5 6 7 8 9 10 11 12 13 14 15 16 17 18 19 20 21 22 23 24 25 26 27 28 29 30 31 32 33 34 35
000
FTUS41 KCLE 270300 AAA
TAFCLE
TAF AMD
KCLE 270323Z 2703/2806 19010KT P6SM OVC250
     FM270700 20007KT P6SM OVC025
     FM271200 19009KT P6SM OVC100
     FM272300 20009KT 4SM -RA OVC015
     FM280500 20009KT 4SM -RA BR OVC002=

USA.gov is the U.S. government's official web portal to all federal, state and local government web resources and services.